sensor_id;sensor_type;location;lat;lon;timestamp;temperature;humidity
70366;DHT22;57787;48.216;12.396;2024-03-23T00:55:33;9.50;83.00
70366;DHT22;57787;48.216;12.396;2024-03-23T00:57:59;9.30;83.40
70366;DHT22;57787;48.216;12.396;2024-03-23T01:00:24;9.20;83.40
70366;DHT22;57787;48.216;12.396;2024-03-23T01:02:50;9.00;83.70
70366;DHT22;57787;48.216;12.396;2024-03-23T01:05:19;8.80;84.00
70366;DHT22;57787;48.216;12.396;2024-03-23T01:07:45;8.70;84.40
70366;DHT22;57787;48.216;12.396;2024-03-23T01:10:11;8.60;84.70
70366;DHT22;57787;48.216;12.396;2024-03-23T01:12:40;8.50;84.90
70366;DHT22;57787;48.216;12.396;2024-03-23T01:15:06;8.40;85.30
70366;DHT22;57787;48.216;12.396;2024-03-23T01:17:31;8.30;85.50
70366;DHT22;57787;48.216;12.396;2024-03-23T01:19:57;8.30;85.60
70366;DHT22;57787;48.216;12.396;2024-03-23T01:22:23;8.30;85.60
70366;DHT22;57787;48.216;12.396;2024-03-23T01:24:49;8.30;85.80
70366;DHT22;57787;48.216;12.396;2024-03-23T01:27:15;8.30;86.00
70366;DHT22;57787;48.216;12.396;2024-03-23T01:29:40;8.30;86.00
70366;DHT22;57787;48.216;12.396;2024-03-23T01:32:06;8.30;86.20
70366;DHT22;57787;48.216;12.396;2024-03-23T01:34:32;8.40;86.00
70366;DHT22;57787;48.216;12.396;2024-03-23T01:36:58;8.40;86.30
70366;DHT22;57787;48.216;12.396;2024-03-23T01:39:24;8.40;86.10
70366;DHT22;57787;48.216;12.396;2024-03-23T01:41:50;8.50;86.10
70366;DHT22;57787;48.216;12.396;2024-03-23T01:44:16;8.60;85.90
70366;DHT22;57787;48.216;12.396;2024-03-23T01:46:45;8.60;85.90
70366;DHT22;57787;48.216;12.396;2024-03-23T01:49:12;8.60;85.60
70366;DHT22;57787;48.216;12.396;2024-03-23T01:51:38;8.60;85.80
70366;DHT22;57787;48.216;12.396;2024-03-23T01:54:04;8.60;85.90
70366;DHT22;57787;48.216;12.396;2024-03-23T01:56:32;8.70;85.80
70366;DHT22;57787;48.216;12.396;2024-03-23T01:59:01;8.70;85.60
70366;DHT22;57787;48.216;12.396;2024-03-23T02:01:27;8.70;85.30
70366;DHT22;57787;48.216;12.396;2024-03-23T02:03:52;8.70;85.00
70366;DHT22;57787;48.216;12.396;2024-03-23T02:06:18;8.60;85.20
70366;DHT22;57787;48.216;12.396;2024-03-23T02:08:44;8.50;85.30
70366;DHT22;57787;48.216;12.396;2024-03-23T02:11:10;8.40;85.30
70366;DHT22;57787;48.216;12.396;2024-03-23T02:13:36;8.30;85.50
70366;DHT22;57787;48.216;12.396;2024-03-23T02:16:02;8.20;85.60
70366;DHT22;57787;48.216;12.396;2024-03-23T02:18:28;8.10;85.80
70366;DHT22;57787;48.216;12.396;2024-03-23T02:20:54;8.10;86.10
70366;DHT22;57787;48.216;12.396;2024-03-23T02:23:20;8.00;86.30
70366;DHT22;57787;48.216;12.396;2024-03-23T02:25:45;8.10;86.40
70366;DHT22;57787;48.216;12.396;2024-03-23T02:28:11;8.00;86.40
70366;DHT22;57787;48.216;12.396;2024-03-23T02:30:37;8.00;86.40
70366;DHT22;57787;48.216;12.396;2024-03-23T02:33:03;8.00;86.20
70366;DHT22;57787;48.216;12.396;2024-03-23T02:35:29;8.00;86.20
70366;DHT22;57787;48.216;12.396;2024-03-23T02:37:55;8.00;86.00
70366;DHT22;57787;48.216;12.396;2024-03-23T02:40:23;7.90;86.00
70366;DHT22;57787;48.216;12.396;2024-03-23T02:42:50;7.80;86.10
70366;DHT22;57787;48.216;12.396;2024-03-23T02:45:17;7.70;86.40
70366;DHT22;57787;48.216;12.396;2024-03-23T02:47:43;7.60;86.70
70366;DHT22;57787;48.216;12.396;2024-03-23T02:50:08;7.50;86.70
70366;DHT22;57787;48.216;12.396;2024-03-23T02:52:35;7.50;87.00
70366;DHT22;57787;48.216;12.396;2024-03-23T02:55:04;7.50;86.90
70366;DHT22;57787;48.216;12.396;2024-03-23T02:57:30;7.50;87.20
70366;DHT22;57787;48.216;12.396;2024-03-23T02:59:56;7.60;87.50
70366;DHT22;57787;48.216;12.396;2024-03-23T03:02:22;7.70;87.30
70366;DHT22;57787;48.216;12.396;2024-03-23T03:04:48;7.70;87.30
70366;DHT22;57787;48.216;12.396;2024-03-23T03:07:14;7.80;87.10
70366;DHT22;57787;48.216;12.396;2024-03-23T03:09:40;7.90;86.90
70366;DHT22;57787;48.216;12.396;2024-03-23T03:12:06;8.00;86.70
70366;DHT22;57787;48.216;12.396;2024-03-23T03:14:33;8.00;86.60
70366;DHT22;57787;48.216;12.396;2024-03-23T03:16:59;8.10;86.40
70366;DHT22;57787;48.216;12.396;2024-03-23T03:19:25;8.10;86.20
70366;DHT22;57787;48.216;12.396;2024-03-23T03:21:51;8.10;86.10
70366;DHT22;57787;48.216;12.396;2024-03-23T03:24:17;8.20;86.10
70366;DHT22;57787;48.216;12.396;2024-03-23T03:26:43;8.20;85.90
70366;DHT22;57787;48.216;12.396;2024-03-23T03:29:08;8.20;85.70
70366;DHT22;57787;48.216;12.396;2024-03-23T03:31:34;8.20;85.40
70366;DHT22;57787;48.216;12.396;2024-03-23T03:34:00;8.20;85.20
70366;DHT22;57787;48.216;12.396;2024-03-23T03:36:26;8.20;85.00
70366;DHT22;57787;48.216;12.396;2024-03-23T03:38:52;8.30;85.00
70366;DHT22;57787;48.216;12.396;2024-03-23T03:41:19;8.20;84.70
70366;DHT22;57787;48.216;12.396;2024-03-23T03:43:45;8.30;84.70
70366;DHT22;57787;48.216;12.396;2024-03-23T03:46:10;8.20;84.70
70366;DHT22;57787;48.216;12.396;2024-03-23T03:48:36;8.10;84.60
70366;DHT22;57787;48.216;12.396;2024-03-23T03:51:02;8.10;84.60
70366;DHT22;57787;48.216;12.396;2024-03-23T03:53:28;8.10;84.50
70366;DHT22;57787;48.216;12.396;2024-03-23T03:55:54;8.10;84.30
70366;DHT22;57787;48.216;12.396;2024-03-23T03:58:20;8.10;84.30
70366;DHT22;57787;48.216;12.396;2024-03-23T04:00:46;8.20;84.10
70366;DHT22;57787;48.216;12.396;2024-03-23T04:03:12;8.10;84.00
70366;DHT22;57787;48.216;12.396;2024-03-23T04:05:37;8.10;83.90
70366;DHT22;57787;48.216;12.396;2024-03-23T04:08:04;8.10;83.80
70366;DHT22;57787;48.216;12.396;2024-03-23T04:10:30;8.10;83.50
70366;DHT22;57787;48.216;12.396;2024-03-23T04:12:56;8.10;83.50
70366;DHT22;57787;48.216;12.396;2024-03-23T04:15:21;8.10;83.20
70366;DHT22;57787;48.216;12.396;2024-03-23T04:17:47;8.20;83.10
70366;DHT22;57787;48.216;12.396;2024-03-23T04:20:13;8.10;82.90
70366;DHT22;57787;48.216;12.396;2024-03-23T04:22:42;8.20;82.70
70366;DHT22;57787;48.216;12.396;2024-03-23T04:25:08;8.10;82.30
70366;DHT22;57787;48.216;12.396;2024-03-23T04:27:36;8.20;82.10
70366;DHT22;57787;48.216;12.396;2024-03-23T04:30:02;8.10;82.10
70366;DHT22;57787;48.216;12.396;2024-03-23T04:32:30;8.00;82.10
70366;DHT22;57787;48.216;12.396;2024-03-23T04:34:55;8.00;82.20
70366;DHT22;57787;48.216;12.396;2024-03-23T04:37:21;8.00;82.20
70366;DHT22;57787;48.216;12.396;2024-03-23T04:39:48;7.90;82.40
70366;DHT22;57787;48.216;12.396;2024-03-23T04:42:17;7.90;82.20
70366;DHT22;57787;48.216;12.396;2024-03-23T04:44:42;7.80;82.10
70366;DHT22;57787;48.216;12.396;2024-03-23T04:47:08;7.80;82.20
70366;DHT22;57787;48.216;12.396;2024-03-23T04:49:34;7.80;82.20
70366;DHT22;57787;48.216;12.396;2024-03-23T04:52:05;7.80;82.30
70366;DHT22;57787;48.216;12.396;2024-03-23T04:54:31;7.80;82.20
70366;DHT22;57787;48.216;12.396;2024-03-23T04:56:58;7.70;82.30
70366;DHT22;57787;48.216;12.396;2024-03-23T04:59:24;7.80;82.10
70366;DHT22;57787;48.216;12.396;2024-03-23T05:01:49;7.70;82.10
70366;DHT22;57787;48.216;12.396;2024-03-23T05:04:15;7.70;82.10
70366;DHT22;57787;48.216;12.396;2024-03-23T05:06:41;7.70;81.90
70366;DHT22;57787;48.216;12.396;2024-03-23T05:09:08;7.70;82.00
70366;DHT22;57787;48.216;12.396;2024-03-23T05:11:37;7.80;81.90
70366;DHT22;57787;48.216;12.396;2024-03-23T05:14:03;7.80;81.80
70366;DHT22;57787;48.216;12.396;2024-03-23T05:16:29;7.80;81.70
70366;DHT22;57787;48.216;12.396;2024-03-23T05:18:55;7.90;81.60
70366;DHT22;57787;48.216;12.396;2024-03-23T05:21:22;8.00;81.20
70366;DHT22;57787;48.216;12.396;2024-03-23T05:23:48;8.00;81.10
70366;DHT22;57787;48.216;12.396;2024-03-23T05:26:14;8.10;80.90
70366;DHT22;57787;48.216;12.396;2024-03-23T05:28:40;8.10;80.80
70366;DHT22;57787;48.216;12.396;2024-03-23T05:31:06;8.20;80.40
70366;DHT22;57787;48.216;12.396;2024-03-23T05:33:31;8.20;80.30
70366;DHT22;57787;48.216;12.396;2024-03-23T05:35:58;8.30;80.20
70366;DHT22;57787;48.216;12.396;2024-03-23T05:38:24;8.30;80.00
70366;DHT22;57787;48.216;12.396;2024-03-23T05:40:57;8.30;79.60
70366;DHT22;57787;48.216;12.396;2024-03-23T05:43:23;8.30;79.60
70366;DHT22;57787;48.216;12.396;2024-03-23T05:45:53;8.40;79.30
70366;DHT22;57787;48.216;12.396;2024-03-23T05:48:18;8.40;79.20
70366;DHT22;57787;48.216;12.396;2024-03-23T05:50:44;8.50;78.80
70366;DHT22;57787;48.216;12.396;2024-03-23T05:53:10;8.60;78.70
70366;DHT22;57787;48.216;12.396;2024-03-23T05:55:36;8.60;78.40
70366;DHT22;57787;48.216;12.396;2024-03-23T05:58:02;8.70;78.00
70366;DHT22;57787;48.216;12.396;2024-03-23T06:00:27;8.80;77.50
70366;DHT22;57787;48.216;12.396;2024-03-23T06:02:54;9.00;77.10
70366;DHT22;57787;48.216;12.396;2024-03-23T06:05:20;9.00;76.90
70366;DHT22;57787;48.216;12.396;2024-03-23T06:07:46;9.10;76.90
70366;DHT22;57787;48.216;12.396;2024-03-23T06:10:12;9.20;76.40
70366;DHT22;57787;48.216;12.396;2024-03-23T06:12:37;9.20;76.10
70366;DHT22;57787;48.216;12.396;2024-03-23T06:15:03;9.30;75.30
70366;DHT22;57787;48.216;12.396;2024-03-23T06:17:29;9.50;75.20
70366;DHT22;57787;48.216;12.396;2024-03-23T06:19:55;9.70;74.30
70366;DHT22;57787;48.216;12.396;2024-03-23T06:22:21;9.80;74.10
70366;DHT22;57787;48.216;12.396;2024-03-23T06:24:47;10.00;73.80
70366;DHT22;57787;48.216;12.396;2024-03-23T06:27:12;10.00;72.80
70366;DHT22;57787;48.216;12.396;2024-03-23T06:29:38;10.20;72.20
70366;DHT22;57787;48.216;12.396;2024-03-23T06:32:04;10.30;71.80
70366;DHT22;57787;48.216;12.396;2024-03-23T06:34:30;10.40;71.30
70366;DHT22;57787;48.216;12.396;2024-03-23T06:36:56;10.50;71.20
70366;DHT22;57787;48.216;12.396;2024-03-23T06:39:25;10.60;70.70
70366;DHT22;57787;48.216;12.396;2024-03-23T06:41:54;10.70;70.50
70366;DHT22;57787;48.216;12.396;2024-03-23T06:44:20;10.80;70.30
70366;DHT22;57787;48.216;12.396;2024-03-23T06:46:46;10.80;69.70
70366;DHT22;57787;48.216;12.396;2024-03-23T06:49:13;10.90;69.80
70366;DHT22;57787;48.216;12.396;2024-03-23T06:51:38;11.00;69.60
70366;DHT22;57787;48.216;12.396;2024-03-23T06:54:05;11.20;69.10
70366;DHT22;57787;48.216;12.396;2024-03-23T06:56:31;11.30;69.10
70366;DHT22;57787;48.216;12.396;2024-03-23T06:58:57;11.50;68.60
70366;DHT22;57787;48.216;12.396;2024-03-23T07:01:23;11.60;68.00
70366;DHT22;57787;48.216;12.396;2024-03-23T07:03:49;11.80;66.90
70366;DHT22;57787;48.216;12.396;2024-03-23T07:06:15;12.00;66.50
70366;DHT22;57787;48.216;12.396;2024-03-23T07:08:40;12.20;65.80
70366;DHT22;57787;48.216;12.396;2024-03-23T07:11:06;12.30;64.50
70366;DHT22;57787;48.216;12.396;2024-03-23T07:13:32;12.50;64.30
70366;DHT22;57787;48.216;12.396;2024-03-23T07:15:58;12.70;63.40
70366;DHT22;57787;48.216;12.396;2024-03-23T07:18:25;12.90;63.70
70366;DHT22;57787;48.216;12.396;2024-03-23T07:20:55;13.10;63.80
70366;DHT22;57787;48.216;12.396;2024-03-23T07:23:24;13.30;62.70
70366;DHT22;57787;48.216;12.396;2024-03-23T07:26:23;13.40;62.20
70366;DHT22;57787;48.216;12.396;2024-03-23T07:28:46;13.60;60.90
70366;DHT22;57787;48.216;12.396;2024-03-23T07:31:16;13.80;60.70
70366;DHT22;57787;48.216;12.396;2024-03-23T07:33:43;13.90;60.50
70366;DHT22;57787;48.216;12.396;2024-03-23T07:36:09;14.00;60.60
70366;DHT22;57787;48.216;12.396;2024-03-23T07:38:35;14.20;59.90
70366;DHT22;57787;48.216;12.396;2024-03-23T07:41:04;14.30;58.40
70366;DHT22;57787;48.216;12.396;2024-03-23T07:43:37;14.50;59.10
70366;DHT22;57787;48.216;12.396;2024-03-23T07:46:05;14.60;58.30
70366;DHT22;57787;48.216;12.396;2024-03-23T07:48:31;14.80;56.90
70366;DHT22;57787;48.216;12.396;2024-03-23T07:51:04;15.00;57.00
70366;DHT22;57787;48.216;12.396;2024-03-23T07:53:31;15.20;56.80
70366;DHT22;57787;48.216;12.396;2024-03-23T07:56:15;15.40;55.90
70366;DHT22;57787;48.216;12.396;2024-03-23T07:58:44;15.60;55.60
70366;DHT22;57787;48.216;12.396;2024-03-23T08:01:14;16.00;54.20
70366;DHT22;57787;48.216;12.396;2024-03-23T08:03:40;16.40;53.10
70366;DHT22;57787;48.216;12.396;2024-03-23T08:08:42;17.80;50.90
70366;DHT22;57787;48.216;12.396;2024-03-23T08:11:08;18.20;49.70
70366;DHT22;57787;48.216;12.396;2024-03-23T08:13:35;18.30;49.80
70366;DHT22;57787;48.216;12.396;2024-03-23T08:16:02;18.50;49.20
70366;DHT22;57787;48.216;12.396;2024-03-23T08:18:29;18.60;49.00
70366;DHT22;57787;48.216;12.396;2024-03-23T08:20:56;18.60;50.80
70366;DHT22;57787;48.216;12.396;2024-03-23T08:23:23;18.50;50.60
70366;DHT22;57787;48.216;12.396;2024-03-23T08:25:49;18.50;51.10
70366;DHT22;57787;48.216;12.396;2024-03-23T08:28:14;18.80;51.70
70366;DHT22;57787;48.216;12.396;2024-03-23T08:30:46;18.80;51.50
70366;DHT22;57787;48.216;12.396;2024-03-23T08:33:13;18.30;53.50
70366;DHT22;57787;48.216;12.396;2024-03-23T08:35:40;17.90;52.90
70366;DHT22;57787;48.216;12.396;2024-03-23T08:38:06;17.60;55.20
70366;DHT22;57787;48.216;12.396;2024-03-23T08:40:32;17.30;55.50
70366;DHT22;57787;48.216;12.396;2024-03-23T08:42:58;17.00;58.50
70366;DHT22;57787;48.216;12.396;2024-03-23T08:45:24;16.70;58.70
70366;DHT22;57787;48.216;12.396;2024-03-23T08:47:51;16.50;59.80
70366;DHT22;57787;48.216;12.396;2024-03-23T08:50:18;16.30;61.00
70366;DHT22;57787;48.216;12.396;2024-03-23T08:52:46;16.20;62.80
70366;DHT22;57787;48.216;12.396;2024-03-23T08:55:14;15.90;63.40
70366;DHT22;57787;48.216;12.396;2024-03-23T08:57:40;15.40;65.40
70366;DHT22;57787;48.216;12.396;2024-03-23T09:00:06;15.10;67.40
70366;DHT22;57787;48.216;12.396;2024-03-23T09:02:35;14.60;69.40
70366;DHT22;57787;48.216;12.396;2024-03-23T09:05:01;13.90;70.90
70366;DHT22;57787;48.216;12.396;2024-03-23T09:07:31;13.30;72.40
70366;DHT22;57787;48.216;12.396;2024-03-23T09:09:57;12.60;73.90
70366;DHT22;57787;48.216;12.396;2024-03-23T09:12:23;12.30;74.90
70366;DHT22;57787;48.216;12.396;2024-03-23T09:14:50;12.00;76.30
70366;DHT22;57787;48.216;12.396;2024-03-23T09:17:16;11.80;77.10
70366;DHT22;57787;48.216;12.396;2024-03-23T09:19:42;11.60;76.70
70366;DHT22;57787;48.216;12.396;2024-03-23T09:22:08;11.50;78.90
70366;DHT22;57787;48.216;12.396;2024-03-23T09:24:35;11.40;77.00
70366;DHT22;57787;48.216;12.396;2024-03-23T09:27:02;11.40;78.90
70366;DHT22;57787;48.216;12.396;2024-03-23T09:29:30;11.40;78.10
70366;DHT22;57787;48.216;12.396;2024-03-23T09:31:56;11.30;78.60
70366;DHT22;57787;48.216;12.396;2024-03-23T09:34:23;11.30;79.00
70366;DHT22;57787;48.216;12.396;2024-03-23T09:36:52;11.20;80.30
70366;DHT22;57787;48.216;12.396;2024-03-23T09:39:19;11.10;80.60
70366;DHT22;57787;48.216;12.396;2024-03-23T09:41:46;11.00;80.80
70366;DHT22;57787;48.216;12.396;2024-03-23T09:44:12;10.90;79.60
70366;DHT22;57787;48.216;12.396;2024-03-23T09:46:38;10.70;81.30
70366;DHT22;57787;48.216;12.396;2024-03-23T09:49:06;10.80;81.80
70366;DHT22;57787;48.216;12.396;2024-03-23T09:51:37;10.70;82.10
70366;DHT22;57787;48.216;12.396;2024-03-23T09:54:06;10.80;82.90
70366;DHT22;57787;48.216;12.396;2024-03-23T09:56:32;10.80;82.20
70366;DHT22;57787;48.216;12.396;2024-03-23T09:59:01;10.80;81.80
70366;DHT22;57787;48.216;12.396;2024-03-23T10:01:30;10.90;81.90
70366;DHT22;57787;48.216;12.396;2024-03-23T10:03:55;11.00;81.80
70366;DHT22;57787;48.216;12.396;2024-03-23T10:06:22;11.20;80.50
70366;DHT22;57787;48.216;12.396;2024-03-23T10:08:51;11.30;78.90
70366;DHT22;57787;48.216;12.396;2024-03-23T10:11:16;11.40;80.10
70366;DHT22;57787;48.216;12.396;2024-03-23T10:13:43;11.50;80.30
70366;DHT22;57787;48.216;12.396;2024-03-23T10:16:09;11.70;79.60
70366;DHT22;57787;48.216;12.396;2024-03-23T10:18:38;11.80;79.80
70366;DHT22;57787;48.216;12.396;2024-03-23T10:23:38;12.00;77.50
70366;DHT22;57787;48.216;12.396;2024-03-23T10:28:50;12.00;77.00
70366;DHT22;57787;48.216;12.396;2024-03-23T10:31:17;11.90;76.90
70366;DHT22;57787;48.216;12.396;2024-03-23T10:33:46;11.70;75.80
70366;DHT22;57787;48.216;12.396;2024-03-23T10:36:12;11.60;77.20
70366;DHT22;57787;48.216;12.396;2024-03-23T10:38:42;11.40;76.20
70366;DHT22;57787;48.216;12.396;2024-03-23T10:41:09;11.20;77.40
70366;DHT22;57787;48.216;12.396;2024-03-23T10:43:35;11.00;76.60
70366;DHT22;57787;48.216;12.396;2024-03-23T10:46:01;10.80;78.70
70366;DHT22;57787;48.216;12.396;2024-03-23T10:48:27;10.80;78.70
70366;DHT22;57787;48.216;12.396;2024-03-23T10:50:53;10.70;77.90
70366;DHT22;57787;48.216;12.396;2024-03-23T10:53:20;10.50;78.20
70366;DHT22;57787;48.216;12.396;2024-03-23T10:55:48;10.50;79.60
70366;DHT22;57787;48.216;12.396;2024-03-23T10:58:14;10.30;80.40
70366;DHT22;57787;48.216;12.396;2024-03-23T11:00:41;10.30;81.00
70366;DHT22;57787;48.216;12.396;2024-03-23T11:06:07;10.20;79.90
70366;DHT22;57787;48.216;12.396;2024-03-23T11:08:39;10.20;79.10
70366;DHT22;57787;48.216;12.396;2024-03-23T11:11:13;10.30;81.20
70366;DHT22;57787;48.216;12.396;2024-03-23T11:13:39;10.50;80.10
70366;DHT22;57787;48.216;12.396;2024-03-23T11:18:40;10.70;77.60
70366;DHT22;57787;48.216;12.396;2024-03-23T11:21:09;10.80;78.70
70366;DHT22;57787;48.216;12.396;2024-03-23T11:23:35;10.80;77.60
70366;DHT22;57787;48.216;12.396;2024-03-23T11:26:01;11.10;78.10
70366;DHT22;57787;48.216;12.396;2024-03-23T11:28:26;11.10;78.30
70366;DHT22;57787;48.216;12.396;2024-03-23T11:30:52;11.30;77.30
70366;DHT22;57787;48.216;12.396;2024-03-23T11:33:18;11.30;76.50
70366;DHT22;57787;48.216;12.396;2024-03-23T11:35:45;11.40;77.20
70366;DHT22;57787;48.216;12.396;2024-03-23T11:38:15;11.30;76.00
70366;DHT22;57787;48.216;12.396;2024-03-23T11:40:45;11.40;76.10
70366;DHT22;57787;48.216;12.396;2024-03-23T11:43:14;11.40;75.40
70366;DHT22;57787;48.216;12.396;2024-03-23T11:45:42;11.40;76.00
70366;DHT22;57787;48.216;12.396;2024-03-23T11:48:09;11.40;76.90
70366;DHT22;57787;48.216;12.396;2024-03-23T11:50:45;11.40;75.80
70366;DHT22;57787;48.216;12.396;2024-03-23T11:58:05;10.80;77.60
70366;DHT22;57787;48.216;12.396;2024-03-23T12:00:31;10.70;78.90
70366;DHT22;57787;48.216;12.396;2024-03-23T12:03:01;10.70;77.70
70366;DHT22;57787;48.216;12.396;2024-03-23T12:05:28;10.60;78.90
70366;DHT22;57787;48.216;12.396;2024-03-23T12:07:55;10.50;75.80
70366;DHT22;57787;48.216;12.396;2024-03-23T12:10:21;10.40;77.80
70366;DHT22;57787;48.216;12.396;2024-03-23T12:13:02;10.20;78.40
70366;DHT22;57787;48.216;12.396;2024-03-23T12:15:28;10.20;79.70
70366;DHT22;57787;48.216;12.396;2024-03-23T12:18:08;10.20;79.40
70366;DHT22;57787;48.216;12.396;2024-03-23T12:20:34;10.20;80.00
70366;DHT22;57787;48.216;12.396;2024-03-23T12:23:11;10.20;79.60
70366;DHT22;57787;48.216;12.396;2024-03-23T12:25:38;10.20;79.80
70366;DHT22;57787;48.216;12.396;2024-03-23T12:28:05;10.20;77.80
70366;DHT22;57787;48.216;12.396;2024-03-23T12:30:32;10.20;79.70
70366;DHT22;57787;48.216;12.396;2024-03-23T12:32:59;10.30;80.50
70366;DHT22;57787;48.216;12.396;2024-03-23T12:35:25;10.40;78.30
70366;DHT22;57787;48.216;12.396;2024-03-23T12:37:51;10.40;79.50
70366;DHT22;57787;48.216;12.396;2024-03-23T12:40:16;10.50;80.30
70366;DHT22;57787;48.216;12.396;2024-03-23T12:42:42;10.60;79.10
70366;DHT22;57787;48.216;12.396;2024-03-23T12:45:08;10.70;78.50
70366;DHT22;57787;48.216;12.396;2024-03-23T12:47:34;10.80;79.00
70366;DHT22;57787;48.216;12.396;2024-03-23T12:50:00;10.90;77.30
70366;DHT22;57787;48.216;12.396;2024-03-23T12:52:26;11.20;76.60
70366;DHT22;57787;48.216;12.396;2024-03-23T12:54:58;11.40;76.40
70366;DHT22;57787;48.216;12.396;2024-03-23T12:57:24;11.60;76.80
70366;DHT22;57787;48.216;12.396;2024-03-23T12:59:52;11.80;75.80
70366;DHT22;57787;48.216;12.396;2024-03-23T13:02:20;12.00;76.70
70366;DHT22;57787;48.216;12.396;2024-03-23T13:04:49;12.20;74.60
70366;DHT22;57787;48.216;12.396;2024-03-23T13:07:16;12.40;75.20
70366;DHT22;57787;48.216;12.396;2024-03-23T13:09:42;12.50;71.80
70366;DHT22;57787;48.216;12.396;2024-03-23T13:12:08;12.50;72.90
70366;DHT22;57787;48.216;12.396;2024-03-23T13:14:35;12.60;72.50
70366;DHT22;57787;48.216;12.396;2024-03-23T13:17:04;12.70;72.50
70366;DHT22;57787;48.216;12.396;2024-03-23T13:19:30;12.70;72.40
70366;DHT22;57787;48.216;12.396;2024-03-23T13:21:57;12.70;70.30
70366;DHT22;57787;48.216;12.396;2024-03-23T13:24:23;12.70;72.00
70366;DHT22;57787;48.216;12.396;2024-03-23T13:26:53;12.70;72.10
70366;DHT22;57787;48.216;12.396;2024-03-23T13:29:19;12.80;72.30
70366;DHT22;57787;48.216;12.396;2024-03-23T13:31:48;12.70;71.30
70366;DHT22;57787;48.216;12.396;2024-03-23T13:34:14;12.50;71.90
70366;DHT22;57787;48.216;12.396;2024-03-23T13:36:44;12.40;70.50
70366;DHT22;57787;48.216;12.396;2024-03-23T13:39:10;12.30;69.90
70366;DHT22;57787;48.216;12.396;2024-03-23T13:41:40;12.30;71.80
70366;DHT22;57787;48.216;12.396;2024-03-23T13:44:06;12.40;71.80
70366;DHT22;57787;48.216;12.396;2024-03-23T13:46:36;12.40;67.00
70366;DHT22;57787;48.216;12.396;2024-03-23T13:49:03;12.40;68.80
70366;DHT22;57787;48.216;12.396;2024-03-23T13:51:29;12.30;69.50
70366;DHT22;57787;48.216;12.396;2024-03-23T13:53:55;12.00;67.10
70366;DHT22;57787;48.216;12.396;2024-03-23T13:56:30;11.90;68.20
70366;DHT22;57787;48.216;12.396;2024-03-23T13:58:56;11.80;67.40
70366;DHT22;57787;48.216;12.396;2024-03-23T14:01:21;11.90;67.70
70366;DHT22;57787;48.216;12.396;2024-03-23T14:03:48;12.00;66.50
70366;DHT22;57787;48.216;12.396;2024-03-23T14:06:14;12.10;68.40
70366;DHT22;57787;48.216;12.396;2024-03-23T14:08:40;12.10;66.40
70366;DHT22;57787;48.216;12.396;2024-03-23T14:11:07;12.00;68.10
70366;DHT22;57787;48.216;12.396;2024-03-23T14:13:35;11.90;67.90
70366;DHT22;57787;48.216;12.396;2024-03-23T14:16:01;11.80;68.40
70366;DHT22;57787;48.216;12.396;2024-03-23T14:18:27;11.80;67.40
70366;DHT22;57787;48.216;12.396;2024-03-23T14:20:56;11.70;68.00
70366;DHT22;57787;48.216;12.396;2024-03-23T14:23:24;11.60;70.30
70366;DHT22;57787;48.216;12.396;2024-03-23T14:25:52;11.50;70.20
70366;DHT22;57787;48.216;12.396;2024-03-23T14:28:18;11.40;70.10
70366;DHT22;57787;48.216;12.396;2024-03-23T14:30:44;11.30;68.40
70366;DHT22;57787;48.216;12.396;2024-03-23T14:33:10;11.20;70.00
70366;DHT22;57787;48.216;12.396;2024-03-23T14:35:36;10.90;66.50
70366;DHT22;57787;48.216;12.396;2024-03-23T14:38:02;10.70;68.90
70366;DHT22;57787;48.216;12.396;2024-03-23T14:40:28;10.50;70.00
70366;DHT22;57787;48.216;12.396;2024-03-23T14:42:54;10.30;69.20
70366;DHT22;57787;48.216;12.396;2024-03-23T14:45:20;10.10;69.40
70366;DHT22;57787;48.216;12.396;2024-03-23T14:47:46;9.70;71.00
70366;DHT22;57787;48.216;12.396;2024-03-23T14:50:12;9.30;71.60
70366;DHT22;57787;48.216;12.396;2024-03-23T14:52:47;8.80;73.10
70366;DHT22;57787;48.216;12.396;2024-03-23T14:55:13;8.50;75.90
70366;DHT22;57787;48.216;12.396;2024-03-23T14:57:39;8.30;77.50
70366;DHT22;57787;48.216;12.396;2024-03-23T15:00:09;8.20;78.40
70366;DHT22;57787;48.216;12.396;2024-03-23T15:02:36;8.20;79.70
70366;DHT22;57787;48.216;12.396;2024-03-23T15:05:03;8.10;79.70
70366;DHT22;57787;48.216;12.396;2024-03-23T15:07:30;8.10;80.40
70366;DHT22;57787;48.216;12.396;2024-03-23T15:09:56;8.00;81.00
70366;DHT22;57787;48.216;12.396;2024-03-23T15:12:22;8.00;80.70
70366;DHT22;57787;48.216;12.396;2024-03-23T15:14:48;7.90;80.70
70366;DHT22;57787;48.216;12.396;2024-03-23T15:17:14;7.80;80.50
70366;DHT22;57787;48.216;12.396;2024-03-23T15:19:40;7.70;80.40
70366;DHT22;57787;48.216;12.396;2024-03-23T15:22:08;7.70;81.90
70366;DHT22;57787;48.216;12.396;2024-03-23T15:24:36;7.70;81.20
70366;DHT22;57787;48.216;12.396;2024-03-23T15:27:02;7.70;81.10
70366;DHT22;57787;48.216;12.396;2024-03-23T15:29:29;7.80;82.10
70366;DHT22;57787;48.216;12.396;2024-03-23T15:31:54;7.80;81.50
70366;DHT22;57787;48.216;12.396;2024-03-23T15:34:21;7.80;80.70
70366;DHT22;57787;48.216;12.396;2024-03-23T15:36:49;7.90;81.60
70366;DHT22;57787;48.216;12.396;2024-03-23T15:39:16;7.90;81.80
70366;DHT22;57787;48.216;12.396;2024-03-23T15:41:43;7.90;81.80
70366;DHT22;57787;48.216;12.396;2024-03-23T15:44:09;7.80;82.40
70366;DHT22;57787;48.216;12.396;2024-03-23T15:46:35;7.80;82.30
70366;DHT22;57787;48.216;12.396;2024-03-23T15:49:01;7.80;82.10
70366;DHT22;57787;48.216;12.396;2024-03-23T15:51:26;7.80;81.80
70366;DHT22;57787;48.216;12.396;2024-03-23T15:53:57;7.80;82.00
70366;DHT22;57787;48.216;12.396;2024-03-23T15:56:23;7.70;81.90
70366;DHT22;57787;48.216;12.396;2024-03-23T15:58:49;7.70;80.30
70366;DHT22;57787;48.216;12.396;2024-03-23T16:01:14;7.70;80.30
70366;DHT22;57787;48.216;12.396;2024-03-23T16:03:41;7.70;80.50
70366;DHT22;57787;48.216;12.396;2024-03-23T16:06:07;7.70;80.40
70366;DHT22;57787;48.216;12.396;2024-03-23T16:08:33;7.70;80.90
70366;DHT22;57787;48.216;12.396;2024-03-23T16:11:00;7.70;79.70
70366;DHT22;57787;48.216;12.396;2024-03-23T16:13:26;7.60;80.00
70366;DHT22;57787;48.216;12.396;2024-03-23T16:18:22;7.60;79.50
70366;DHT22;57787;48.216;12.396;2024-03-23T16:20:58;7.40;79.90
70366;DHT22;57787;48.216;12.396;2024-03-23T16:23:25;7.40;80.10
70366;DHT22;57787;48.216;12.396;2024-03-23T16:25:52;7.30;80.10
70366;DHT22;57787;48.216;12.396;2024-03-23T16:28:25;7.30;80.70
70366;DHT22;57787;48.216;12.396;2024-03-23T16:30:54;7.30;80.80
70366;DHT22;57787;48.216;12.396;2024-03-23T16:33:20;7.20;81.00
70366;DHT22;57787;48.216;12.396;2024-03-23T16:35:56;7.20;81.20